sensor_id;sensor_type;location;lat;lon;timestamp;pressure;altitude;pressure_sealevel;temperature;humidity
63306;BME280;50735;52.060;1.248;2023-02-28T00:00:38;103033.63;;;2.67;51.17
63306;BME280;50735;52.060;1.248;2023-02-28T00:03:04;103032.94;;;2.65;50.75
63306;BME280;50735;52.060;1.248;2023-02-28T00:05:32;103031.38;;;2.61;50.98
63306;BME280;50735;52.060;1.248;2023-02-28T00:07:59;103030.66;;;2.63;51.23
63306;BME280;50735;52.060;1.248;2023-02-28T00:10:28;103033.59;;;2.61;50.88
63306;BME280;50735;52.060;1.248;2023-02-28T00:13:01;103030.57;;;2.41;50.88
63306;BME280;50735;52.060;1.248;2023-02-28T00:15:28;103031.03;;;2.40;50.89
63306;BME280;50735;52.060;1.248;2023-02-28T00:17:55;103027.28;;;2.54;50.99
63306;BME280;50735;52.060;1.248;2023-02-28T00:20:22;103029.94;;;2.56;51.01
63306;BME280;50735;52.060;1.248;2023-02-28T00:22:51;103027.24;;;2.54;51.08
63306;BME280;50735;52.060;1.248;2023-02-28T00:25:20;103031.45;;;2.49;51.24
63306;BME280;50735;52.060;1.248;2023-02-28T00:27:48;103028.06;;;2.46;51.22
63306;BME280;50735;52.060;1.248;2023-02-28T00:30:17;103030.90;;;2.41;51.40
63306;BME280;50735;52.060;1.248;2023-02-28T00:32:44;103028.71;;;2.42;51.39
63306;BME280;50735;52.060;1.248;2023-02-28T00:35:11;103029.92;;;2.36;51.56
63306;BME280;50735;52.060;1.248;2023-02-28T00:37:38;103030.46;;;2.35;51.52
63306;BME280;50735;52.060;1.248;2023-02-28T00:40:06;103031.93;;;2.36;51.59
63306;BME280;50735;52.060;1.248;2023-02-28T00:42:34;103030.03;;;2.36;51.58
63306;BME280;50735;52.060;1.248;2023-02-28T00:45:01;103033.55;;;2.17;51.59
63306;BME280;50735;52.060;1.248;2023-02-28T00:47:28;103031.88;;;2.34;51.64
63306;BME280;50735;52.060;1.248;2023-02-28T00:49:55;103032.11;;;2.35;51.63
63306;BME280;50735;52.060;1.248;2023-02-28T00:52:22;103034.67;;;2.53;51.69
63306;BME280;50735;52.060;1.248;2023-02-28T00:54:49;103035.72;;;2.51;51.78
63306;BME280;50735;52.060;1.248;2023-02-28T00:57:16;103031.72;;;2.34;51.83
63306;BME280;50735;52.060;1.248;2023-02-28T00:59:43;103030.12;;;2.33;51.86
63306;BME280;50735;52.060;1.248;2023-02-28T01:02:10;103028.74;;;2.31;51.80
63306;BME280;50735;52.060;1.248;2023-02-28T01:04:36;103032.84;;;2.45;51.88
63306;BME280;50735;52.060;1.248;2023-02-28T01:07:03;103032.89;;;2.10;52.33
63306;BME280;50735;52.060;1.248;2023-02-28T01:09:30;103031.18;;;2.15;52.19
63306;BME280;50735;52.060;1.248;2023-02-28T01:11:57;103027.07;;;2.29;52.15
63306;BME280;50735;52.060;1.248;2023-02-28T01:14:24;103026.21;;;2.07;52.72
63306;BME280;50735;52.060;1.248;2023-02-28T01:16:51;103025.65;;;2.13;52.76
63306;BME280;50735;52.060;1.248;2023-02-28T01:19:17;103026.95;;;2.19;52.51
63306;BME280;50735;52.060;1.248;2023-02-28T01:21:44;103027.65;;;1.95;52.66
63306;BME280;50735;52.060;1.248;2023-02-28T01:24:11;103028.10;;;2.00;52.71
63306;BME280;50735;52.060;1.248;2023-02-28T01:26:38;103028.91;;;2.03;52.63
63306;BME280;50735;52.060;1.248;2023-02-28T01:29:05;103027.89;;;2.01;52.65
63306;BME280;50735;52.060;1.248;2023-02-28T01:31:31;103024.42;;;2.21;52.69
63306;BME280;50735;52.060;1.248;2023-02-28T01:33:58;103019.46;;;2.23;52.67
63306;BME280;50735;52.060;1.248;2023-02-28T01:36:26;103018.66;;;2.06;52.60
63306;BME280;50735;52.060;1.248;2023-02-28T01:38:53;103019.39;;;2.06;52.70
63306;BME280;50735;52.060;1.248;2023-02-28T01:41:23;103017.59;;;2.04;52.52
63306;BME280;50735;52.060;1.248;2023-02-28T01:43:57;103013.41;;;2.25;52.51
63306;BME280;50735;52.060;1.248;2023-02-28T01:46:24;103007.60;;;2.28;52.61
63306;BME280;50735;52.060;1.248;2023-02-28T01:48:53;103006.04;;;2.09;52.35
63306;BME280;50735;52.060;1.248;2023-02-28T01:51:22;103007.02;;;2.27;52.40
63306;BME280;50735;52.060;1.248;2023-02-28T01:53:56;103005.33;;;2.11;52.31
63306;BME280;50735;52.060;1.248;2023-02-28T01:56:29;103004.40;;;2.09;52.31
63306;BME280;50735;52.060;1.248;2023-02-28T01:58:57;103000.22;;;2.25;52.43
63306;BME280;50735;52.060;1.248;2023-02-28T02:01:25;103002.59;;;2.07;52.47
63306;BME280;50735;52.060;1.248;2023-02-28T02:03:56;103002.55;;;2.05;52.39
63306;BME280;50735;52.060;1.248;2023-02-28T02:06:25;102999.73;;;2.03;52.48
63306;BME280;50735;52.060;1.248;2023-02-28T02:08:54;103003.66;;;1.95;52.68
63306;BME280;50735;52.060;1.248;2023-02-28T02:11:23;103002.53;;;1.97;52.64
63306;BME280;50735;52.060;1.248;2023-02-28T02:14:03;103001.40;;;1.97;52.76
63306;BME280;50735;52.060;1.248;2023-02-28T02:16:45;102997.89;;;2.17;52.67
63306;BME280;50735;52.060;1.248;2023-02-28T02:19:39;102990.34;;;1.98;52.71
63306;BME280;50735;52.060;1.248;2023-02-28T02:22:26;102989.95;;;1.98;52.77
63306;BME280;50735;52.060;1.248;2023-02-28T02:25:12;102988.44;;;2.17;52.72
63306;BME280;50735;52.060;1.248;2023-02-28T02:27:59;102984.60;;;1.98;52.71
63306;BME280;50735;52.060;1.248;2023-02-28T02:30:50;102981.58;;;1.96;52.77
63306;BME280;50735;52.060;1.248;2023-02-28T02:33:38;102987.31;;;1.93;53.13
63306;BME280;50735;52.060;1.248;2023-02-28T02:36:13;102995.66;;;2.04;53.13
63306;BME280;50735;52.060;1.248;2023-02-28T02:38:46;103002.40;;;1.83;52.98
63306;BME280;50735;52.060;1.248;2023-02-28T02:41:19;102998.56;;;1.73;53.28
63306;BME280;50735;52.060;1.248;2023-02-28T02:43:54;102996.56;;;2.12;53.19
63306;BME280;50735;52.060;1.248;2023-02-28T02:46:30;102990.80;;;1.70;54.53
63306;BME280;50735;52.060;1.248;2023-02-28T02:49:00;102993.90;;;1.88;54.06
63306;BME280;50735;52.060;1.248;2023-02-28T02:51:31;102994.94;;;1.98;53.83
63306;BME280;50735;52.060;1.248;2023-02-28T02:54:03;102999.69;;;2.03;53.72
63306;BME280;50735;52.060;1.248;2023-02-28T02:56:33;102997.29;;;1.72;53.96
63306;BME280;50735;52.060;1.248;2023-02-28T02:59:06;102992.92;;;1.72;53.67
63306;BME280;50735;52.060;1.248;2023-02-28T03:01:35;102995.16;;;2.00;53.64
63306;BME280;50735;52.060;1.248;2023-02-28T03:04:06;102998.69;;;1.86;53.50
63306;BME280;50735;52.060;1.248;2023-02-28T03:06:34;102998.60;;;1.64;53.58
63306;BME280;50735;52.060;1.248;2023-02-28T03:09:01;102998.94;;;1.65;53.59
63306;BME280;50735;52.060;1.248;2023-02-28T03:11:29;102995.50;;;1.63;53.62
63306;BME280;50735;52.060;1.248;2023-02-28T03:14:24;102996.78;;;1.87;53.77
63306;BME280;50735;52.060;1.248;2023-02-28T03:17:02;103001.51;;;1.87;53.80
63306;BME280;50735;52.060;1.248;2023-02-28T03:19:41;102998.36;;;1.90;53.70
63306;BME280;50735;52.060;1.248;2023-02-28T03:22:21;103002.20;;;1.96;53.84
63306;BME280;50735;52.060;1.248;2023-02-28T03:24:56;103009.61;;;1.87;53.92
63306;BME280;50735;52.060;1.248;2023-02-28T03:27:28;103006.72;;;2.09;53.82
63306;BME280;50735;52.060;1.248;2023-02-28T03:30:01;103005.60;;;2.35;54.04
63306;BME280;50735;52.060;1.248;2023-02-28T03:32:34;103008.24;;;2.20;54.00
63306;BME280;50735;52.060;1.248;2023-02-28T03:35:07;103004.56;;;2.04;53.96
63306;BME280;50735;52.060;1.248;2023-02-28T03:37:39;102996.02;;;2.07;53.99
63306;BME280;50735;52.060;1.248;2023-02-28T03:40:11;103001.47;;;2.10;54.00
63306;BME280;50735;52.060;1.248;2023-02-28T03:42:42;103007.31;;;2.52;54.09
63306;BME280;50735;52.060;1.248;2023-02-28T03:45:11;103003.50;;;2.12;53.98
63306;BME280;50735;52.060;1.248;2023-02-28T03:47:46;103003.04;;;2.18;53.93
63306;BME280;50735;52.060;1.248;2023-02-28T03:50:18;103005.39;;;2.39;53.92
63306;BME280;50735;52.060;1.248;2023-02-28T03:52:50;103003.12;;;2.20;53.95
63306;BME280;50735;52.060;1.248;2023-02-28T03:55:18;103009.74;;;2.23;53.92
63306;BME280;50735;52.060;1.248;2023-02-28T03:57:54;103007.54;;;2.26;53.93
63306;BME280;50735;52.060;1.248;2023-02-28T04:00:28;103007.10;;;2.45;53.89
63306;BME280;50735;52.060;1.248;2023-02-28T04:02:58;103010.47;;;2.26;54.00
63306;BME280;50735;52.060;1.248;2023-02-28T04:05:25;103011.31;;;2.26;53.84
63306;BME280;50735;52.060;1.248;2023-02-28T04:07:53;103012.53;;;2.25;54.00
63306;BME280;50735;52.060;1.248;2023-02-28T04:10:20;103010.26;;;2.42;54.01
63306;BME280;50735;52.060;1.248;2023-02-28T04:12:47;103014.76;;;2.22;54.02
63306;BME280;50735;52.060;1.248;2023-02-28T04:15:14;103015.35;;;2.24;54.13
63306;BME280;50735;52.060;1.248;2023-02-28T04:17:40;103014.15;;;2.38;54.68
63306;BME280;50735;52.060;1.248;2023-02-28T04:20:08;103016.43;;;2.22;54.28
63306;BME280;50735;52.060;1.248;2023-02-28T04:22:35;103018.30;;;2.22;54.30
63306;BME280;50735;52.060;1.248;2023-02-28T04:25:02;103017.95;;;2.40;54.34
63306;BME280;50735;52.060;1.248;2023-02-28T04:27:29;103020.39;;;2.23;54.20
63306;BME280;50735;52.060;1.248;2023-02-28T04:29:56;103023.58;;;2.22;54.50
63306;BME280;50735;52.060;1.248;2023-02-28T04:32:23;103022.06;;;2.38;54.36
63306;BME280;50735;52.060;1.248;2023-02-28T04:34:49;103022.75;;;2.24;54.35
63306;BME280;50735;52.060;1.248;2023-02-28T04:37:16;103027.81;;;2.26;54.23
63306;BME280;50735;52.060;1.248;2023-02-28T04:39:43;103026.84;;;2.46;54.27
63306;BME280;50735;52.060;1.248;2023-02-28T04:42:11;103022.85;;;2.25;54.33
63306;BME280;50735;52.060;1.248;2023-02-28T04:44:38;103022.91;;;2.24;54.62
63306;BME280;50735;52.060;1.248;2023-02-28T04:47:05;103026.70;;;2.45;54.29
63306;BME280;50735;52.060;1.248;2023-02-28T04:49:31;103027.67;;;2.22;54.82
63306;BME280;50735;52.060;1.248;2023-02-28T04:51:58;103031.70;;;2.18;54.41
63306;BME280;50735;52.060;1.248;2023-02-28T04:54:25;103032.49;;;2.02;54.84
63306;BME280;50735;52.060;1.248;2023-02-28T04:56:52;103036.43;;;2.11;54.51
63306;BME280;50735;52.060;1.248;2023-02-28T04:59:18;103036.73;;;2.39;54.36
63306;BME280;50735;52.060;1.248;2023-02-28T05:01:46;103040.62;;;2.24;54.61
63306;BME280;50735;52.060;1.248;2023-02-28T05:04:14;103043.23;;;2.25;54.52
63306;BME280;50735;52.060;1.248;2023-02-28T05:06:41;103044.09;;;2.25;54.31
63306;BME280;50735;52.060;1.248;2023-02-28T05:09:08;103042.19;;;2.05;55.13
63306;BME280;50735;52.060;1.248;2023-02-28T05:11:35;103043.49;;;2.01;55.46
63306;BME280;50735;52.060;1.248;2023-02-28T05:14:02;103043.33;;;2.05;55.19
63306;BME280;50735;52.060;1.248;2023-02-28T05:16:30;103043.38;;;2.12;54.88
63306;BME280;50735;52.060;1.248;2023-02-28T05:18:57;103040.94;;;2.27;55.15
63306;BME280;50735;52.060;1.248;2023-02-28T05:21:27;103040.79;;;2.15;55.39
63306;BME280;50735;52.060;1.248;2023-02-28T05:23:56;103037.55;;;2.17;54.95
63306;BME280;50735;52.060;1.248;2023-02-28T05:26:24;103035.26;;;2.21;54.76
63306;BME280;50735;52.060;1.248;2023-02-28T05:28:51;103037.09;;;2.24;54.69
63306;BME280;50735;52.060;1.248;2023-02-28T05:31:18;103034.03;;;2.47;54.75
63306;BME280;50735;52.060;1.248;2023-02-28T05:33:45;103034.52;;;2.33;54.90
63306;BME280;50735;52.060;1.248;2023-02-28T05:36:12;103037.66;;;2.37;54.79
63306;BME280;50735;52.060;1.248;2023-02-28T05:38:38;103041.28;;;2.26;54.88
63306;BME280;50735;52.060;1.248;2023-02-28T05:41:07;103037.16;;;2.34;55.06
63306;BME280;50735;52.060;1.248;2023-02-28T05:43:34;103039.33;;;2.33;54.73
63306;BME280;50735;52.060;1.248;2023-02-28T05:46:03;103042.91;;;2.18;55.90
63306;BME280;50735;52.060;1.248;2023-02-28T05:48:30;103037.71;;;2.27;55.20
63306;BME280;50735;52.060;1.248;2023-02-28T05:50:57;103031.87;;;2.33;54.86
63306;BME280;50735;52.060;1.248;2023-02-28T05:53:24;103032.07;;;2.27;55.01
63306;BME280;50735;52.060;1.248;2023-02-28T05:55:51;103033.51;;;2.26;55.32
63306;BME280;50735;52.060;1.248;2023-02-28T05:58:18;103029.03;;;2.30;55.20
63306;BME280;50735;52.060;1.248;2023-02-28T06:00:44;103026.56;;;2.29;54.93
63306;BME280;50735;52.060;1.248;2023-02-28T06:03:11;103027.12;;;2.41;54.69
63306;BME280;50735;52.060;1.248;2023-02-28T06:05:38;103030.72;;;2.45;54.65
63306;BME280;50735;52.060;1.248;2023-02-28T06:08:05;103028.20;;;2.55;54.90
63306;BME280;50735;52.060;1.248;2023-02-28T06:10:31;103024.54;;;2.28;54.92
63306;BME280;50735;52.060;1.248;2023-02-28T06:12:59;103021.42;;;2.27;55.10
63306;BME280;50735;52.060;1.248;2023-02-28T06:15:26;103017.06;;;2.36;54.78
63306;BME280;50735;52.060;1.248;2023-02-28T06:17:52;103017.35;;;2.26;55.18
63306;BME280;50735;52.060;1.248;2023-02-28T06:20:19;103012.58;;;2.27;55.25
63306;BME280;50735;52.060;1.248;2023-02-28T06:22:46;103015.27;;;2.34;54.85
63306;BME280;50735;52.060;1.248;2023-02-28T06:25:13;103013.15;;;2.31;54.95
63306;BME280;50735;52.060;1.248;2023-02-28T06:27:40;103016.07;;;2.18;54.76
63306;BME280;50735;52.060;1.248;2023-02-28T06:30:07;103017.37;;;2.60;54.53
63306;BME280;50735;52.060;1.248;2023-02-28T06:32:35;103021.41;;;2.23;55.09
63306;BME280;50735;52.060;1.248;2023-02-28T06:35:02;103023.55;;;2.11;55.48
63306;BME280;50735;52.060;1.248;2023-02-28T06:37:30;103029.23;;;2.18;55.38
63306;BME280;50735;52.060;1.248;2023-02-28T06:39:57;103030.32;;;2.25;55.32
63306;BME280;50735;52.060;1.248;2023-02-28T06:42:25;103035.74;;;2.11;55.59
63306;BME280;50735;52.060;1.248;2023-02-28T06:44:51;103037.71;;;2.13;55.39
63306;BME280;50735;52.060;1.248;2023-02-28T06:47:18;103034.71;;;2.23;55.16
63306;BME280;50735;52.060;1.248;2023-02-28T06:49:45;103035.08;;;2.34;54.90
63306;BME280;50735;52.060;1.248;2023-02-28T06:52:11;103030.81;;;2.35;54.79
63306;BME280;50735;52.060;1.248;2023-02-28T06:54:38;103033.07;;;2.35;54.97
63306;BME280;50735;52.060;1.248;2023-02-28T06:57:05;103032.53;;;2.26;54.72
63306;BME280;50735;52.060;1.248;2023-02-28T06:59:32;103034.18;;;2.39;55.10
63306;BME280;50735;52.060;1.248;2023-02-28T07:01:58;103034.83;;;2.17;54.94
63306;BME280;50735;52.060;1.248;2023-02-28T07:04:25;103036.33;;;2.01;55.11
63306;BME280;50735;52.060;1.248;2023-02-28T07:06:52;103040.08;;;2.38;55.42
63306;BME280;50735;52.060;1.248;2023-02-28T07:09:19;103042.15;;;2.25;55.87
63306;BME280;50735;52.060;1.248;2023-02-28T07:11:45;103042.44;;;2.22;55.72
63306;BME280;50735;52.060;1.248;2023-02-28T07:14:12;103036.43;;;2.38;55.73
63306;BME280;50735;52.060;1.248;2023-02-28T07:16:39;103035.23;;;2.29;55.33
63306;BME280;50735;52.060;1.248;2023-02-28T07:19:06;103042.07;;;2.48;55.11
63306;BME280;50735;52.060;1.248;2023-02-28T07:21:32;103043.55;;;2.71;55.24
63306;BME280;50735;52.060;1.248;2023-02-28T07:23:59;103043.23;;;2.57;56.00
63306;BME280;50735;52.060;1.248;2023-02-28T07:26:26;103045.37;;;2.68;55.44
63306;BME280;50735;52.060;1.248;2023-02-28T07:28:53;103046.10;;;2.61;55.45
63306;BME280;50735;52.060;1.248;2023-02-28T07:31:19;103048.31;;;2.95;55.08
63306;BME280;50735;52.060;1.248;2023-02-28T07:33:46;103044.66;;;3.08;55.37
63306;BME280;50735;52.060;1.248;2023-02-28T07:36:15;103037.03;;;3.16;54.98
63306;BME280;50735;52.060;1.248;2023-02-28T07:38:42;103039.74;;;3.02;54.85
63306;BME280;50735;52.060;1.248;2023-02-28T07:41:09;103036.17;;;3.28;54.74
63306;BME280;50735;52.060;1.248;2023-02-28T07:43:37;103033.86;;;2.98;54.70
63306;BME280;50735;52.060;1.248;2023-02-28T07:46:05;103038.49;;;2.81;55.27
63306;BME280;50735;52.060;1.248;2023-02-28T07:48:32;103037.28;;;2.85;55.08
63306;BME280;50735;52.060;1.248;2023-02-28T07:50:59;103036.03;;;2.97;54.94
63306;BME280;50735;52.060;1.248;2023-02-28T07:53:27;103033.18;;;2.93;55.26
63306;BME280;50735;52.060;1.248;2023-02-28T07:55:55;103038.52;;;2.72;56.04
63306;BME280;50735;52.060;1.248;2023-02-28T07:58:23;103044.54;;;2.82;56.18
63306;BME280;50735;52.060;1.248;2023-02-28T08:00:50;103044.84;;;3.37;55.75
63306;BME280;50735;52.060;1.248;2023-02-28T08:03:19;103045.22;;;3.01;55.96
63306;BME280;50735;52.060;1.248;2023-02-28T08:05:46;103040.44;;;3.14;55.56
63306;BME280;50735;52.060;1.248;2023-02-28T08:08:13;103044.23;;;3.25;55.30
63306;BME280;50735;52.060;1.248;2023-02-28T08:10:41;103048.45;;;3.37;54.96
63306;BME280;50735;52.060;1.248;2023-02-28T08:13:08;103049.69;;;3.47;54.81
63306;BME280;50735;52.060;1.248;2023-02-28T08:15:35;103045.15;;;3.59;54.56
63306;BME280;50735;52.060;1.248;2023-02-28T08:18:01;103047.67;;;3.69;54.43
63306;BME280;50735;52.060;1.248;2023-02-28T08:20:28;103046.71;;;3.74;54.38
63306;BME280;50735;52.060;1.248;2023-02-28T08:22:55;103048.27;;;3.73;54.52
63306;BME280;50735;52.060;1.248;2023-02-28T08:25:22;103048.65;;;3.77;54.40
63306;BME280;50735;52.060;1.248;2023-02-28T08:27:50;103049.02;;;3.93;54.42
63306;BME280;50735;52.060;1.248;2023-02-28T08:30:18;103047.64;;;4.05;54.26
63306;BME280;50735;52.060;1.248;2023-02-28T08:32:44;103044.16;;;4.10;54.28
63306;BME280;50735;52.060;1.248;2023-02-28T08:35:11;103041.06;;;3.98;54.14
63306;BME280;50735;52.060;1.248;2023-02-28T08:37:38;103039.80;;;4.29;54.02
63306;BME280;50735;52.060;1.248;2023-02-28T08:40:06;103038.12;;;4.36;54.10
63306;BME280;50735;52.060;1.248;2023-02-28T08:42:33;103039.05;;;4.33;53.94
63306;BME280;50735;52.060;1.248;2023-02-28T08:45:00;103038.04;;;4.57;54.20
63306;BME280;50735;52.060;1.248;2023-02-28T08:47:26;103036.63;;;4.55;54.32
63306;BME280;50735;52.060;1.248;2023-02-28T08:49:53;103041.89;;;4.71;54.11
63306;BME280;50735;52.060;1.248;2023-02-28T08:52:20;103044.49;;;4.49;54.25
63306;BME280;50735;52.060;1.248;2023-02-28T08:54:46;103037.86;;;4.45;53.97
63306;BME280;50735;52.060;1.248;2023-02-28T08:57:13;103038.33;;;4.53;54.25
63306;BME280;50735;52.060;1.248;2023-02-28T08:59:40;103034.65;;;4.51;53.98
63306;BME280;50735;52.060;1.248;2023-02-28T09:02:08;103033.40;;;4.96;53.83
63306;BME280;50735;52.060;1.248;2023-02-28T09:04:35;103033.93;;;4.51;53.58
63306;BME280;50735;52.060;1.248;2023-02-28T09:07:02;103035.18;;;4.57;53.98
63306;BME280;50735;52.060;1.248;2023-02-28T09:09:28;103032.02;;;4.89;53.76
63306;BME280;50735;52.060;1.248;2023-02-28T09:11:55;103031.28;;;4.38;54.22
63306;BME280;50735;52.060;1.248;2023-02-28T09:14:22;103031.79;;;4.66;54.08
63306;BME280;50735;52.060;1.248;2023-02-28T09:16:49;103033.04;;;4.20;54.74
63306;BME280;50735;52.060;1.248;2023-02-28T09:19:15;103034.41;;;4.43;54.96
63306;BME280;50735;52.060;1.248;2023-02-28T09:21:42;103037.99;;;3.97;55.72
63306;BME280;50735;52.060;1.248;2023-02-28T09:24:09;103035.45;;;4.53;55.00
63306;BME280;50735;52.060;1.248;2023-02-28T09:26:37;103034.25;;;4.54;54.90
63306;BME280;50735;52.060;1.248;2023-02-28T09:29:04;103026.92;;;4.82;54.79
63306;BME280;50735;52.060;1.248;2023-02-28T09:31:31;103023.67;;;4.89;54.55
63306;BME280;50735;52.060;1.248;2023-02-28T09:33:58;103027.97;;;4.33;54.82
63306;BME280;50735;52.060;1.248;2023-02-28T09:36:26;103022.39;;;5.00;54.33
63306;BME280;50735;52.060;1.248;2023-02-28T09:38:53;103013.97;;;4.93;54.19
63306;BME280;50735;52.060;1.248;2023-02-28T09:41:21;103015.84;;;5.07;53.96
63306;BME280;50735;52.060;1.248;2023-02-28T09:43:53;103009.84;;;5.21;53.80
63306;BME280;50735;52.060;1.248;2023-02-28T09:46:29;103006.62;;;5.61;53.43
63306;BME280;50735;52.060;1.248;2023-02-28T09:48:59;103008.30;;;5.85;53.28
63306;BME280;50735;52.060;1.248;2023-02-28T09:51:33;103000.04;;;5.74;53.19
63306;BME280;50735;52.060;1.248;2023-02-28T09:54:01;102991.79;;;5.66;53.01
63306;BME280;50735;52.060;1.248;2023-02-28T09:56:36;102983.92;;;5.63;53.09
63306;BME280;50735;52.060;1.248;2023-02-28T09:59:09;102964.08;;;5.68;53.23
63306;BME280;50735;52.060;1.248;2023-02-28T10:01:41;102960.86;;;5.68;53.56
63306;BME280;50735;52.060;1.248;2023-02-28T10:04:16;102990.11;;;5.56;53.85
63306;BME280;50735;52.060;1.248;2023-02-28T10:06:52;103010.41;;;5.42;54.25
63306;BME280;50735;52.060;1.248;2023-02-28T10:09:23;103014.64;;;5.28;54.32
63306;BME280;50735;52.060;1.248;2023-02-28T10:11:52;103014.27;;;4.62;55.32
63306;BME280;50735;52.060;1.248;2023-02-28T10:14:22;103007.60;;;5.34;55.25
63306;BME280;50735;52.060;1.248;2023-02-28T10:16:52;103011.58;;;5.14;54.82
63306;BME280;50735;52.060;1.248;2023-02-28T10:19:26;103003.29;;;4.80;55.51
63306;BME280;50735;52.060;1.248;2023-02-28T10:21:57;102998.01;;;4.65;56.17
63306;BME280;50735;52.060;1.248;2023-02-28T10:24:32;102999.06;;;4.97;55.52
63306;BME280;50735;52.060;1.248;2023-02-28T10:27:06;102996.54;;;5.25;54.88
63306;BME280;50735;52.060;1.248;2023-02-28T10:29:40;102988.62;;;4.92;55.81
63306;BME280;50735;52.060;1.248;2023-02-28T10:32:11;102989.98;;;4.73;56.48
63306;BME280;50735;52.060;1.248;2023-02-28T10:34:39;102991.22;;;5.34;56.00
63306;BME280;50735;52.060;1.248;2023-02-28T10:37:07;102986.19;;;4.84;56.47
63306;BME280;50735;52.060;1.248;2023-02-28T10:39:35;102980.57;;;4.70;57.02
63306;BME280;50735;52.060;1.248;2023-02-28T10:42:03;102974.65;;;4.76;57.05
63306;BME280;50735;52.060;1.248;2023-02-28T10:44:30;102970.54;;;5.21;56.73
63306;BME280;50735;52.060;1.248;2023-02-28T10:46:57;102969.10;;;5.14;56.57
63306;BME280;50735;52.060;1.248;2023-02-28T10:49:27;102965.10;;;4.90;57.55
63306;BME280;50735;52.060;1.248;2023-02-28T10:51:55;102962.73;;;5.26;56.53
63306;BME280;50735;52.060;1.248;2023-02-28T10:54:30;102961.08;;;5.32;56.50
63306;BME280;50735;52.060;1.248;2023-02-28T10:57:07;102965.21;;;5.51;56.25
63306;BME280;50735;52.060;1.248;2023-02-28T10:59:35;102962.19;;;5.14;56.49
63306;BME280;50735;52.060;1.248;2023-02-28T11:02:29;102962.59;;;5.66;55.89
63306;BME280;50735;52.060;1.248;2023-02-28T11:04:56;102965.83;;;5.36;56.87
63306;BME280;50735;52.060;1.248;2023-02-28T11:07:23;102972.57;;;5.59;56.53
63306;BME280;50735;52.060;1.248;2023-02-28T11:09:53;102975.27;;;5.34;56.76
63306;BME280;50735;52.060;1.248;2023-02-28T11:12:22;102978.78;;;5.46;55.94
63306;BME280;50735;52.060;1.248;2023-02-28T11:14:51;102974.50;;;5.22;56.06
63306;BME280;50735;52.060;1.248;2023-02-28T11:17:21;102974.57;;;5.16;56.27
63306;BME280;50735;52.060;1.248;2023-02-28T11:19:51;102974.23;;;5.13;56.15
63306;BME280;50735;52.060;1.248;2023-02-28T11:22:21;102975.54;;;5.34;56.09
63306;BME280;50735;52.060;1.248;2023-02-28T11:24:53;102976.64;;;4.82;56.40
63306;BME280;50735;52.060;1.248;2023-02-28T11:27:26;102976.40;;;4.74;57.42
63306;BME280;50735;52.060;1.248;2023-02-28T11:30:23;102977.20;;;4.35;57.89
63306;BME280;50735;52.060;1.248;2023-02-28T11:32:50;102980.35;;;4.72;57.55
63306;BME280;50735;52.060;1.248;2023-02-28T11:35:23;102982.41;;;4.87;57.35
63306;BME280;50735;52.060;1.248;2023-02-28T11:37:52;102982.62;;;4.80;57.16
63306;BME280;50735;52.060;1.248;2023-02-28T11:40:23;102987.67;;;4.22;57.90
63306;BME280;50735;52.060;1.248;2023-02-28T11:43:01;102983.93;;;5.07;56.88
63306;BME280;50735;52.060;1.248;2023-02-28T11:45:44;102982.68;;;5.11;56.95
63306;BME280;50735;52.060;1.248;2023-02-28T11:48:20;102980.24;;;5.69;55.75
63306;BME280;50735;52.060;1.248;2023-02-28T11:50:57;102973.56;;;5.36;56.17
63306;BME280;50735;52.060;1.248;2023-02-28T11:53:45;102970.68;;;5.28;55.93
63306;BME280;50735;52.060;1.248;2023-02-28T11:56:22;102966.67;;;4.79;56.63
63306;BME280;50735;52.060;1.248;2023-02-28T11:58:57;102965.15;;;5.14;56.63
63306;BME280;50735;52.060;1.248;2023-02-28T12:01:35;102963.57;;;5.10;57.32
63306;BME280;50735;52.060;1.248;2023-02-28T12:04:14;102958.13;;;4.71;57.68
63306;BME280;50735;52.060;1.248;2023-02-28T12:06:51;102952.14;;;4.70;57.54
63306;BME280;50735;52.060;1.248;2023-02-28T12:09:34;102949.49;;;4.61;57.20
63306;BME280;50735;52.060;1.248;2023-02-28T12:12:15;102940.03;;;4.65;56.91
63306;BME280;50735;52.060;1.248;2023-02-28T12:14:56;102935.52;;;4.86;56.58
63306;BME280;50735;52.060;1.248;2023-02-28T12:17:34;102930.48;;;5.04;56.46
63306;BME280;50735;52.060;1.248;2023-02-28T12:20:14;102924.25;;;4.96;57.03
63306;BME280;50735;52.060;1.248;2023-02-28T12:22:49;102924.99;;;4.81;56.79
63306;BME280;50735;52.060;1.248;2023-02-28T12:25:30;102925.91;;;5.01;56.57
63306;BME280;50735;52.060;1.248;2023-02-28T12:28:04;102922.95;;;5.45;55.80
63306;BME280;50735;52.060;1.248;2023-02-28T12:30:33;102917.21;;;5.27;55.22
63306;BME280;50735;52.060;1.248;2023-02-28T12:33:04;102912.35;;;4.93;56.69
63306;BME280;50735;52.060;1.248;2023-02-28T12:35:34;102909.11;;;5.03;56.16
63306;BME280;50735;52.060;1.248;2023-02-28T12:38:06;102901.98;;;4.55;57.66
63306;BME280;50735;52.060;1.248;2023-02-28T12:40:44;102898.10;;;5.00;57.31
63306;BME280;50735;52.060;1.248;2023-02-28T12:43:13;102892.72;;;4.92;56.96
63306;BME280;50735;52.060;1.248;2023-02-28T12:45:44;102896.11;;;5.19;56.48
63306;BME280;50735;52.060;1.248;2023-02-28T12:48:15;102885.79;;;4.75;57.71
63306;BME280;50735;52.060;1.248;2023-02-28T12:50:45;102882.20;;;4.73;57.27
63306;BME280;50735;52.060;1.248;2023-02-28T12:53:20;102878.73;;;4.95;57.61
63306;BME280;50735;52.060;1.248;2023-02-28T12:55:56;102882.33;;;4.91;57.40
63306;BME280;50735;52.060;1.248;2023-02-28T12:58:31;102880.90;;;4.86;57.49
63306;BME280;50735;52.060;1.248;2023-02-28T13:01:13;102878.57;;;4.90;57.74
63306;BME280;50735;52.060;1.248;2023-02-28T13:03:52;102884.36;;;5.25;57.36
63306;BME280;50735;52.060;1.248;2023-02-28T13:06:39;102882.51;;;5.13;57.61
63306;BME280;50735;52.060;1.248;2023-02-28T13:09:13;102878.69;;;5.20;57.67
63306;BME280;50735;52.060;1.248;2023-02-28T13:11:44;102878.57;;;5.43;57.08
63306;BME280;50735;52.060;1.248;2023-02-28T13:14:22;102872.58;;;5.11;57.63